createdAt,value
2017-12-26T14:00:58.929Z,67.15
2017-12-26T14:01:27.505Z,66.17
2017-12-26T14:02:08.371Z,67.93
2017-12-26T14:02:36.890Z,67.93
2017-12-26T14:03:05.497Z,67.64
2017-12-26T14:03:34.100Z,67.29
2017-12-26T14:04:02.891Z,66.11
2017-12-26T14:04:31.392Z,65.91
2017-12-26T14:05:00.000Z,65.72
2017-12-26T14:05:28.611Z,66.34
2017-12-26T14:05:57.232Z,67.12
2017-12-26T14:06:25.755Z,66.63
2017-12-26T14:06:54.229Z,65.75
2017-12-26T14:07:22.416Z,66.53
2017-12-26T14:07:51.052Z,65.26
2017-12-26T14:08:19.665Z,65.2
2017-12-26T14:08:48.167Z,65
2017-12-26T14:09:16.775Z,64.12
2017-12-26T14:09:45.417Z,63.34
2017-12-26T14:10:13.919Z,64.7
2017-12-26T14:10:42.527Z,64.02
2017-12-26T14:11:11.114Z,64.9
2017-12-26T14:11:39.656Z,64.8
2017-12-26T14:12:08.264Z,66.3
2017-12-26T14:12:36.785Z,65.52
2017-12-26T14:13:05.385Z,63.66
2017-12-26T14:13:33.764Z,64.15
2017-12-26T14:14:02.395Z,61.9
2017-12-26T14:14:31.001Z,61.51
2017-12-26T14:14:59.464Z,63.56
2017-12-26T14:15:27.921Z,61.21
2017-12-26T14:15:56.545Z,62.19
2017-12-26T14:16:25.282Z,65.13
2017-12-26T14:16:53.895Z,62.58
2017-12-26T14:17:22.495Z,60.63
2017-12-26T14:17:51.018Z,60.85
2017-12-26T14:18:19.646Z,61.44
2017-12-26T14:18:48.251Z,61.24
2017-12-26T14:19:16.835Z,59.77
2017-12-26T14:19:45.355Z,59.19
2017-12-26T14:20:13.978Z,60.16
2017-12-26T14:20:42.480Z,62.32
2017-12-26T14:21:11.105Z,62.71
2017-12-26T14:21:39.614Z,62.12
2017-12-26T14:22:08.133Z,60.46
2017-12-26T14:22:36.642Z,61.05
2017-12-26T14:23:05.310Z,60.85
2017-12-26T14:23:33.854Z,60
2017-12-26T14:24:02.471Z,59.61
2017-12-26T14:24:31.139Z,57.84
2017-12-26T14:24:59.744Z,58.04
2017-12-26T14:25:28.192Z,58.79
2017-12-26T14:25:56.713Z,60.46
2017-12-26T14:26:24.902Z,60.85
2017-12-26T14:26:53.033Z,59.41
2017-12-26T14:27:21.110Z,58.82
2017-12-26T14:27:49.298Z,57.84
2017-12-26T14:28:17.180Z,59.11
2017-12-26T14:28:45.249Z,60.49
2017-12-26T14:29:13.320Z,60.29
2017-12-26T14:29:41.371Z,59.21
2017-12-26T14:30:09.408Z,59.01
2017-12-26T14:30:37.552Z,59.9
2017-12-26T14:31:05.684Z,59.11
2017-12-26T14:31:33.914Z,59.01
2017-12-26T14:32:01.888Z,59.31
2017-12-26T14:32:30.069Z,58.04
2017-12-26T14:32:58.162Z,58.23
2017-12-26T14:33:26.319Z,58.62
2017-12-26T14:33:54.357Z,58.14
2017-12-26T14:34:22.494Z,58.53
2017-12-26T14:34:50.671Z,60.49
2017-12-26T14:35:18.816Z,59.11
2017-12-26T14:35:46.942Z,60
2017-12-26T14:36:15.106Z,60.78
2017-12-26T14:36:43.139Z,61.47
2017-12-26T14:37:11.269Z,60
2017-12-26T14:37:39.392Z,59.61
2017-12-26T14:38:07.509Z,58.01
2017-12-26T14:38:35.567Z,57.98
2017-12-26T14:39:03.689Z,60.52
2017-12-26T14:39:31.737Z,61.11
2017-12-26T14:39:59.667Z,61.11
2017-12-26T14:40:27.724Z,61.31
2017-12-26T14:40:55.852Z,61.6
2017-12-26T14:41:23.918Z,61.83
2017-12-26T14:41:52.078Z,61.63
2017-12-26T14:42:20.176Z,60.46
2017-12-26T14:42:48.317Z,60.29
2017-12-26T14:43:16.394Z,60.06
2017-12-26T14:43:44.524Z,61.47
2017-12-26T14:44:12.697Z,62.64
2017-12-26T14:44:40.840Z,61.18
2017-12-26T14:45:08.979Z,59.31
2017-12-26T14:45:36.912Z,59.24
2017-12-26T14:46:05.065Z,59.61
2017-12-26T14:46:33.108Z,59.7
2017-12-26T14:47:01.209Z,60.19
2017-12-26T14:47:29.258Z,59.34
2017-12-26T14:47:57.253Z,59.44
2017-12-26T14:48:25.395Z,57.38
2017-12-26T14:48:53.533Z,57.87
2017-12-26T14:49:21.710Z,58.16
2017-12-26T14:49:49.900Z,57.38
2017-12-26T14:50:18.002Z,56.32
2017-12-26T14:50:45.916Z,56.32
2017-12-26T14:51:14.068Z,56.72
2017-12-26T14:51:42.189Z,55.83
2017-12-26T14:52:10.327Z,55.54
2017-12-26T14:52:38.456Z,57.5
2017-12-26T14:53:06.470Z,57.7
2017-12-26T14:53:34.574Z,58
2017-12-26T14:54:02.727Z,58.58
2017-12-26T14:54:30.769Z,58.78
2017-12-26T14:54:58.919Z,59.66
2017-12-26T14:55:27.046Z,57.5
2017-12-26T14:55:55.096Z,56.13
2017-12-26T14:56:23.246Z,57.4
2017-12-26T14:56:51.145Z,56.2
2017-12-26T14:57:19.251Z,55.41
2017-12-26T14:57:47.307Z,56.1
2017-12-26T14:58:15.484Z,56.2
2017-12-26T14:58:43.635Z,58.26
2017-12-26T14:59:11.809Z,59.63
2017-12-26T14:59:39.802Z,58.23
2017-12-26T15:00:07.872Z,57.54
2017-12-26T15:00:36.012Z,58.33
2017-12-26T15:01:04.127Z,56.96
2017-12-26T15:01:32.252Z,57.54
2017-12-26T15:02:00.405Z,58.92
2017-12-26T15:02:28.411Z,60
2017-12-26T15:02:56.489Z,60.29
2017-12-26T15:03:24.610Z,59.7
2017-12-26T15:03:52.740Z,60.29
2017-12-26T15:04:20.823Z,60.49
2017-12-26T15:04:48.995Z,58.92
2017-12-26T15:05:16.926Z,57.84
2017-12-26T15:05:44.942Z,57.87
2017-12-26T15:06:13.092Z,58.43
2017-12-26T15:06:41.133Z,58.04
2017-12-26T15:07:09.282Z,60.32
2017-12-26T15:07:37.432Z,59.44
2017-12-26T15:08:05.476Z,60.03
2017-12-26T15:08:33.472Z,60.49
2017-12-26T15:09:01.521Z,59.01
2017-12-26T15:09:29.582Z,56.76
2017-12-26T15:09:57.436Z,57.15
2017-12-26T15:10:25.480Z,57.22
2017-12-26T15:10:53.413Z,57.03
2017-12-26T15:11:21.578Z,57.62
2017-12-26T15:11:49.488Z,58.11
2017-12-26T15:12:17.422Z,60.36
2017-12-26T15:12:45.611Z,61.63
2017-12-26T15:13:13.592Z,63.49
2017-12-26T15:13:41.764Z,64.67
2017-12-26T15:14:09.756Z,62.61
2017-12-26T15:14:37.844Z,63.01
2017-12-26T15:15:05.950Z,61.34
2017-12-26T15:15:33.980Z,61.34
2017-12-26T15:16:02.109Z,60.78
2017-12-26T15:16:30.207Z,60.26
2017-12-26T15:16:58.444Z,58.79
2017-12-26T15:17:26.545Z,59.08
2017-12-26T15:17:54.700Z,58.11
2017-12-26T15:18:22.873Z,58.59
2017-12-26T15:18:50.911Z,57.12
2017-12-26T15:19:18.985Z,57.59
2017-12-26T15:19:47.185Z,57.49
2017-12-26T15:20:15.163Z,59.74
2017-12-26T15:20:43.302Z,59.84
2017-12-26T15:21:11.474Z,62.88
2017-12-26T15:21:39.528Z,62.65
2017-12-26T15:22:07.721Z,61.38
2017-12-26T15:22:35.784Z,61.38
2017-12-26T15:23:03.805Z,61.47
2017-12-26T15:23:31.937Z,61.77
2017-12-26T15:24:00.015Z,61.28
2017-12-26T15:24:28.008Z,62.16
2017-12-26T15:24:56.141Z,60.92
2017-12-26T15:25:24.211Z,59.06
2017-12-26T15:25:52.365Z,59.38
2017-12-26T15:26:20.346Z,60.26
2017-12-26T15:26:48.483Z,60.49
2017-12-26T15:27:16.601Z,59.5
2017-12-26T15:27:44.727Z,60.49
2017-12-26T15:28:12.733Z,58.92
2017-12-26T15:28:40.917Z,57.52
2017-12-26T15:29:09.035Z,58.11
2017-12-26T15:29:37.072Z,60.29
2017-12-26T15:30:05.013Z,59.01
2017-12-26T15:30:33.157Z,59.08
2017-12-26T15:31:01.176Z,60.58
2017-12-26T15:31:29.340Z,62.64
2017-12-26T15:31:57.464Z,60.1
2017-12-26T15:32:25.587Z,58.16
2017-12-26T15:32:53.472Z,57.57
2017-12-26T15:33:21.601Z,57.57
2017-12-26T15:33:49.776Z,58.85
2017-12-26T15:34:17.899Z,57.18
2017-12-26T15:34:45.984Z,57.87
2017-12-26T15:35:14.055Z,58.06
2017-12-26T15:35:42.179Z,57.77
2017-12-26T15:36:10.307Z,57.45
2017-12-26T15:36:38.416Z,57.97
2017-12-26T15:37:06.293Z,57.06
2017-12-26T15:37:34.474Z,57.93
2017-12-26T15:38:02.474Z,57.67
2017-12-26T15:38:30.595Z,57.18
2017-12-26T15:38:58.737Z,57.08
2017-12-26T15:39:26.910Z,56.69
2017-12-26T15:39:54.963Z,56.59
2017-12-26T15:40:23.016Z,58.65
2017-12-26T15:40:51.056Z,58.19
2017-12-26T15:41:19.110Z,56.88
2017-12-26T15:41:47.141Z,55.22
2017-12-26T15:42:14.996Z,54.17
2017-12-26T15:42:42.842Z,54.53
2017-12-26T15:43:10.953Z,54.04
2017-12-26T15:43:38.925Z,53.55
2017-12-26T15:44:07.060Z,54.33
2017-12-26T15:44:35.174Z,54.24
2017-12-26T15:45:03.217Z,55.22
2017-12-26T15:45:31.409Z,56.3
2017-12-26T15:46:00.189Z,55.12
2017-12-26T15:46:28.335Z,54.8
2017-12-26T15:46:56.460Z,55.19
2017-12-26T15:47:24.764Z,55.19
2017-12-26T15:47:52.784Z,56.17
2017-12-26T15:48:20.899Z,55.39
2017-12-26T15:48:48.963Z,56.27
2017-12-26T15:49:16.990Z,56.83
2017-12-26T15:49:45.100Z,56.05
2017-12-26T15:50:13.150Z,55.36
2017-12-26T15:50:41.273Z,57.88
2017-12-26T15:51:09.315Z,58.17
2017-12-26T15:51:37.486Z,58.27
2017-12-26T15:52:05.601Z,57.22
2017-12-26T15:52:33.743Z,57.71
2017-12-26T15:53:01.716Z,58.89
2017-12-26T15:53:29.732Z,60.29
2017-12-26T15:53:57.629Z,60.29
2017-12-26T15:54:25.695Z,59.5
2017-12-26T15:54:53.743Z,59.7
2017-12-26T15:55:21.891Z,58.23
2017-12-26T15:55:49.957Z,57.15
2017-12-26T15:56:18.016Z,55.22
2017-12-26T15:56:46.148Z,54.11
2017-12-26T15:57:14.224Z,54.31
2017-12-26T15:57:42.382Z,55.29
2017-12-26T15:58:10.463Z,57.06
2017-12-26T15:58:38.599Z,58.04
2017-12-26T15:59:06.706Z,56.27
2017-12-26T15:59:34.869Z,57.18
2017-12-26T16:00:02.804Z,56.88
2017-12-26T16:00:30.943Z,59.53
2017-12-26T16:00:59.058Z,57.67
2017-12-26T16:01:27.084Z,57.08
2017-12-26T16:01:55.192Z,57.38
2017-12-26T16:02:23.300Z,54.04
2017-12-26T16:02:51.344Z,54.14
2017-12-26T16:03:19.329Z,54.24
2017-12-26T16:03:47.444Z,54.93
2017-12-26T16:04:15.403Z,54.93
2017-12-26T16:04:43.539Z,54.14
2017-12-26T16:05:11.709Z,53.72
2017-12-26T16:05:39.770Z,54.11
2017-12-26T16:06:07.780Z,54.31
2017-12-26T16:06:35.929Z,55.1
2017-12-26T16:07:03.964Z,55.58
2017-12-26T16:07:31.870Z,55.19
2017-12-26T16:08:00.050Z,58.23
2017-12-26T16:08:27.973Z,57.74
2017-12-26T16:08:56.068Z,57.32
2017-12-26T16:09:24.233Z,57.22
2017-12-26T16:09:52.138Z,56.67
2017-12-26T16:10:20.187Z,55.36
2017-12-26T16:10:48.327Z,58.89
2017-12-26T16:11:16.370Z,57.71
2017-12-26T16:11:44.423Z,59.48
2017-12-26T16:12:12.376Z,58.11
2017-12-26T16:12:40.543Z,57.91
2017-12-26T16:13:08.651Z,57.03
2017-12-26T16:13:36.832Z,56.21
2017-12-26T16:14:04.957Z,58.47
2017-12-26T16:14:32.909Z,60.72
2017-12-26T16:15:01.019Z,61.99
2017-12-26T16:15:29.103Z,61.31
2017-12-26T16:15:57.209Z,59.45
2017-12-26T16:16:25.355Z,59.64
2017-12-26T16:16:53.463Z,61.11
2017-12-26T16:17:21.702Z,61.11
2017-12-26T16:17:49.792Z,60.33
2017-12-26T16:18:17.784Z,58.79
2017-12-26T16:18:45.902Z,58.11
2017-12-26T16:19:14.118Z,57.62
2017-12-26T16:19:42.209Z,58.11
2017-12-26T16:20:10.319Z,58.2
2017-12-26T16:20:38.337Z,58.3
2017-12-26T16:21:06.509Z,57.52
2017-12-26T16:21:34.607Z,57.03
2017-12-26T16:22:02.764Z,59.08
2017-12-26T16:22:30.916Z,59.08
2017-12-26T16:22:58.951Z,60.95
2017-12-26T16:23:27.132Z,61.34
2017-12-26T16:23:55.228Z,60.29
2017-12-26T16:24:23.383Z,57.52
2017-12-26T16:24:51.439Z,56.15
2017-12-26T16:25:19.494Z,58.04
2017-12-26T16:25:47.624Z,57.71
2017-12-26T16:26:15.678Z,58.59
2017-12-26T16:26:43.728Z,58.11
2017-12-26T16:27:11.738Z,56.34
2017-12-26T16:27:39.861Z,56.17
2017-12-26T16:28:07.728Z,56.96
2017-12-26T16:28:35.821Z,57.15
2017-12-26T16:29:03.973Z,56.86
2017-12-26T16:29:32.133Z,57.22
2017-12-26T16:30:00.184Z,57.22
2017-12-26T16:30:28.332Z,57.45
2017-12-26T16:30:56.467Z,56.57
2017-12-26T16:31:24.604Z,56.37
2017-12-26T16:31:52.527Z,55.88
2017-12-26T16:32:20.611Z,55.49
2017-12-26T16:32:48.890Z,54.21
2017-12-26T16:33:16.878Z,54.41
2017-12-26T16:33:44.985Z,54.6
2017-12-26T16:34:13.110Z,55
2017-12-26T16:34:41.022Z,55.46
2017-12-26T16:35:09.026Z,55.16
2017-12-26T16:35:37.091Z,54.87
2017-12-26T16:36:05.196Z,54.68
2017-12-26T16:36:33.260Z,54.87
2017-12-26T16:37:01.420Z,54.87
2017-12-26T16:37:29.607Z,54.77
2017-12-26T16:37:57.653Z,55.46
2017-12-26T16:38:25.789Z,55.92
2017-12-26T16:38:53.828Z,55.24
2017-12-26T16:39:21.889Z,55.82
2017-12-26T16:39:49.894Z,57.1
2017-12-26T16:40:17.914Z,57.49
2017-12-26T16:40:46.026Z,56.81
2017-12-26T16:41:14.054Z,56.51
2017-12-26T16:41:42.098Z,56.9
2017-12-26T16:42:10.089Z,56.87
2017-12-26T16:42:38.247Z,57.17
2017-12-26T16:43:06.358Z,56.85
2017-12-26T16:43:34.535Z,57.63
2017-12-26T16:44:02.670Z,57.7
2017-12-26T16:44:30.798Z,58.48
2017-12-26T16:44:58.976Z,59.07
2017-12-26T16:45:27.090Z,60.21
2017-12-26T16:45:55.121Z,60.7
2017-12-26T16:46:23.262Z,61.29
2017-12-26T16:46:51.343Z,61.48
2017-12-26T16:47:19.126Z,60.89
2017-12-26T16:47:47.303Z,61.48
2017-12-26T16:48:15.270Z,61.68
2017-12-26T16:48:43.306Z,62.85
2017-12-26T16:49:11.353Z,64.29
2017-12-26T16:49:39.426Z,65.56
2017-12-26T16:50:07.540Z,66.93
2017-12-26T16:50:35.653Z,66.63
2017-12-26T16:51:03.677Z,67.09
2017-12-26T16:51:31.651Z,67.09
2017-12-26T16:51:59.707Z,67.68
2017-12-26T16:52:27.823Z,67.97
2017-12-26T16:52:55.763Z,68.16
2017-12-26T16:53:23.879Z,68.52
2017-12-26T16:53:51.833Z,69.3
2017-12-26T16:54:19.867Z,69.49
2017-12-26T16:54:47.971Z,70.37
2017-12-26T16:55:15.946Z,73.11
2017-12-26T16:55:44.046Z,75.64
2017-12-26T16:56:12.117Z,81.56
2017-12-26T16:56:40.295Z,87.32
2017-12-26T16:57:08.482Z,89.56
2017-12-26T16:57:36.619Z,88.58
2017-12-26T16:58:04.647Z,85.95
2017-12-26T16:58:32.651Z,86.54
2017-12-26T16:59:00.739Z,88.15
2017-12-26T16:59:28.900Z,88.44
2017-12-26T16:59:57.024Z,91.08
2017-12-26T17:00:25.164Z,91.27
2017-12-26T17:00:53.320Z,88.98
2017-12-26T17:01:21.356Z,92.16
2017-12-26T17:01:49.337Z,95.13
2017-12-26T17:02:17.457Z,96.83
2017-12-26T17:02:45.453Z,98.05
2017-12-26T17:03:13.752Z,99.75
2017-12-26T17:03:41.873Z,99.99
2017-12-26T17:04:09.915Z,99.99
2017-12-26T17:04:38.020Z,99.99
2017-12-26T17:05:06.030Z,99.99
2017-12-26T17:05:34.182Z,99.99
2017-12-26T17:06:02.302Z,99.99
2017-12-26T17:06:30.431Z,99.99
2017-12-26T17:06:58.517Z,99.99
2017-12-26T17:07:26.691Z,99.99
2017-12-26T17:07:54.782Z,99.99
2017-12-26T17:08:22.776Z,99.99
2017-12-26T17:08:50.901Z,99.99
2017-12-26T17:09:19.058Z,99.99
2017-12-26T17:09:47.144Z,99.99
2017-12-26T17:10:15.293Z,99.99
2017-12-26T17:10:43.427Z,99.99
2017-12-26T17:11:11.442Z,99.99
2017-12-26T17:11:39.507Z,99.99
2017-12-26T17:12:07.613Z,99.99
2017-12-26T17:12:35.748Z,99.99
2017-12-26T17:13:03.868Z,99.99
2017-12-26T17:13:31.930Z,99.99
2017-12-26T17:13:59.906Z,99.99
2017-12-26T17:14:28.090Z,99.99
2017-12-26T17:14:56.011Z,99.99
2017-12-26T17:15:23.994Z,99.99
2017-12-26T17:15:52.022Z,99.99
2017-12-26T17:16:20.211Z,99.99
2017-12-26T17:16:48.312Z,99.99
2017-12-26T17:17:16.399Z,99.99
2017-12-26T17:17:44.611Z,99.99
2017-12-26T17:18:12.767Z,99.99
2017-12-26T17:18:40.913Z,99.99
2017-12-26T17:19:08.958Z,99.99
2017-12-26T17:19:36.975Z,99.99
2017-12-26T17:20:05.042Z,99.99
2017-12-26T17:20:33.135Z,99.99
2017-12-26T17:21:01.043Z,99.99
2017-12-26T17:21:29.161Z,99.99
2017-12-26T17:21:57.186Z,99.99
2017-12-26T17:22:25.273Z,99.99
2017-12-26T17:22:53.289Z,99.99
2017-12-26T17:23:21.410Z,99.99
2017-12-26T17:23:49.454Z,99.99
2017-12-26T17:24:17.577Z,99.99
2017-12-26T17:24:45.622Z,99.99
2017-12-26T17:25:13.747Z,99.99
2017-12-26T17:25:41.790Z,99.99
2017-12-26T17:26:09.953Z,99.99
2017-12-26T17:26:38.106Z,99.99
2017-12-26T17:27:06.201Z,99.99
2017-12-26T17:27:34.339Z,99.99
2017-12-26T17:28:02.416Z,99.99
2017-12-26T17:28:30.541Z,99.99
2017-12-26T17:28:58.545Z,99.99
2017-12-26T17:29:26.644Z,99.99
2017-12-26T17:29:54.643Z,99.99
2017-12-26T17:30:22.812Z,99.99
2017-12-26T17:30:50.967Z,99.99
2017-12-26T17:31:19.086Z,99.99
2017-12-26T17:31:47.276Z,99.99
2017-12-26T17:32:15.296Z,99.99
2017-12-26T17:32:43.419Z,99.99
2017-12-26T17:33:11.543Z,99.99
2017-12-26T17:33:39.600Z,99.99
2017-12-26T17:34:07.767Z,99.99
2017-12-26T17:34:35.889Z,99.99
2017-12-26T17:35:03.916Z,99.99
2017-12-26T17:35:32.088Z,99.99
2017-12-26T17:36:00.109Z,99.99
2017-12-26T17:36:27.919Z,99.99
2017-12-26T17:36:56.080Z,99.99
2017-12-26T17:37:24.874Z,99.99
2017-12-26T17:37:52.900Z,99.99
2017-12-26T17:38:21.033Z,99.99
2017-12-26T17:38:49.172Z,99.99
2017-12-26T17:39:17.273Z,99.99
2017-12-26T17:39:45.308Z,99.99
2017-12-26T17:40:13.338Z,99.99
2017-12-26T17:40:41.447Z,99.99
2017-12-26T17:41:09.471Z,99.99
2017-12-26T17:41:37.556Z,99.99
2017-12-26T17:42:05.681Z,99.99
2017-12-26T17:42:33.817Z,99.99
2017-12-26T17:43:01.928Z,99.99
2017-12-26T17:43:30.075Z,99.99
2017-12-26T17:43:58.225Z,99.99
2017-12-26T17:44:26.324Z,99.99
2017-12-26T17:44:54.445Z,99.99
2017-12-26T17:45:22.544Z,99.99
2017-12-26T17:45:50.595Z,99.99
2017-12-26T17:46:18.724Z,99.99
2017-12-26T17:46:46.850Z,99.99
2017-12-26T17:47:14.995Z,99.99
2017-12-26T17:47:43.054Z,99.99
2017-12-26T17:48:11.057Z,99.99
2017-12-26T17:48:39.280Z,99.99
2017-12-26T17:49:07.291Z,99.99
2017-12-26T17:49:35.408Z,99.99
2017-12-26T17:50:03.518Z,99.99
2017-12-26T17:50:31.395Z,99.99
2017-12-26T17:50:59.559Z,99.99
2017-12-26T17:51:27.578Z,99.99
2017-12-26T17:51:55.724Z,99.99
2017-12-26T17:52:23.925Z,99.99
2017-12-26T17:52:52.133Z,99.99
2017-12-26T17:53:20.163Z,99.99
2017-12-26T17:53:48.232Z,99.99
2017-12-26T17:54:16.352Z,99.99
2017-12-26T17:54:44.470Z,99.99
2017-12-26T17:55:12.421Z,99.99
2017-12-26T17:55:40.606Z,99.99
2017-12-26T17:56:08.722Z,99.99
2017-12-26T17:56:36.777Z,99.99
2017-12-26T17:57:04.984Z,99.99
2017-12-26T17:57:33.191Z,99.99
2017-12-26T17:58:01.288Z,99.99
2017-12-26T17:58:29.392Z,99.99
2017-12-26T17:58:57.400Z,99.99
2017-12-26T17:59:25.555Z,99.99
2017-12-26T17:59:53.732Z,99.99
2017-12-26T18:00:21.860Z,99.99
2017-12-26T18:00:49.889Z,99.99
2017-12-26T18:01:18.043Z,99.99
2017-12-26T18:01:45.978Z,99.99
2017-12-26T18:02:14.077Z,99.99
2017-12-26T18:02:42.204Z,99.99
2017-12-26T18:03:10.308Z,99.99
2017-12-26T18:03:38.333Z,99.99
2017-12-26T18:04:06.274Z,99.99
2017-12-26T18:04:34.367Z,99.99
2017-12-26T18:05:02.420Z,99.99
2017-12-26T18:05:30.589Z,99.99
2017-12-26T18:05:58.537Z,99.99
2017-12-26T18:06:26.599Z,99.99
2017-12-26T18:06:54.723Z,99.99
2017-12-26T18:07:22.746Z,99.99
2017-12-26T18:07:50.929Z,99.99
2017-12-26T18:08:18.963Z,99.99
2017-12-26T18:08:47.028Z,99.99
2017-12-26T18:09:15.169Z,99.99
2017-12-26T18:09:43.266Z,99.99
2017-12-26T18:10:11.367Z,99.99
2017-12-26T18:10:39.411Z,99.99
2017-12-26T18:11:07.602Z,99.99
2017-12-26T18:11:35.632Z,99.99
2017-12-26T18:12:03.766Z,99.99
2017-12-26T18:12:31.827Z,99.99
2017-12-26T18:12:59.884Z,99.99
2017-12-26T18:13:28.027Z,99.99
2017-12-26T18:13:56.025Z,99.99
2017-12-26T18:14:24.133Z,99.99
2017-12-26T18:14:52.289Z,99.99
2017-12-26T18:15:20.378Z,99.99
2017-12-26T18:15:48.507Z,99.99
2017-12-26T18:16:16.664Z,99.99
2017-12-26T18:16:44.828Z,99.99
2017-12-26T18:17:12.757Z,99.99
2017-12-26T18:17:40.890Z,99.99
2017-12-26T18:18:08.995Z,99.99
2017-12-26T18:18:37.161Z,99.99
2017-12-26T18:19:05.453Z,99.99
2017-12-26T18:19:33.531Z,99.99
2017-12-26T18:20:01.666Z,99.99
2017-12-26T18:20:29.736Z,99.99
2017-12-26T18:20:57.745Z,99.99
2017-12-26T18:21:25.902Z,99.99
2017-12-26T18:21:53.932Z,99.99
2017-12-26T18:22:21.967Z,99.99
2017-12-26T18:22:50.113Z,99.99
2017-12-26T18:23:18.210Z,99.99
2017-12-26T18:23:46.474Z,99.99
2017-12-26T18:24:14.521Z,99.99
2017-12-26T18:24:42.657Z,99.99
2017-12-26T18:25:10.708Z,99.99
2017-12-26T18:25:38.833Z,99.99
2017-12-26T18:26:07.021Z,99.99
2017-12-26T18:26:35.083Z,99.99
2017-12-26T18:27:03.204Z,99.99
2017-12-26T18:27:31.348Z,99.99
2017-12-26T18:27:59.371Z,99.99
2017-12-26T18:29:10.663Z,99.99
2017-12-26T18:29:38.470Z,99.99
2017-12-26T18:30:06.499Z,99.99
2017-12-26T18:30:34.633Z,99.99
2017-12-26T18:31:02.673Z,99.99
2017-12-26T18:31:30.709Z,99.99
2017-12-26T18:31:58.890Z,99.99
2017-12-26T18:32:27.023Z,99.99
2017-12-26T18:32:55.048Z,99.99
2017-12-26T18:33:23.121Z,99.99
2017-12-26T18:33:51.043Z,99.99
2017-12-26T18:34:19.224Z,99.99
2017-12-26T18:34:47.306Z,99.99
2017-12-26T18:35:15.366Z,99.99
2017-12-26T18:35:43.386Z,99.99
2017-12-26T18:36:11.388Z,99.99
2017-12-26T18:36:39.423Z,99.99
2017-12-26T18:37:07.341Z,99.99
2017-12-26T18:37:35.424Z,99.99
2017-12-26T18:38:03.594Z,99.99
2017-12-26T18:38:32.417Z,99.99
2017-12-26T18:39:00.468Z,99.99
2017-12-26T18:39:28.665Z,99.99
2017-12-26T18:39:56.721Z,99.99
2017-12-26T18:40:24.853Z,99.99
2017-12-26T18:40:52.977Z,99.99
2017-12-26T18:41:20.956Z,99.99
2017-12-26T18:41:48.926Z,99.99
2017-12-26T18:42:16.953Z,99.99
2017-12-26T18:42:44.967Z,99.99
2017-12-26T18:43:13.092Z,99.99
2017-12-26T18:43:40.829Z,99.99
2017-12-26T18:44:09.026Z,99.99
2017-12-26T18:44:37.095Z,99.99
2017-12-26T18:45:05.064Z,99.99
2017-12-26T18:45:33.108Z,99.99
2017-12-26T18:46:01.104Z,99.99
2017-12-26T18:46:29.144Z,99.99
2017-12-26T18:46:57.244Z,99.99
2017-12-26T18:47:25.268Z,99.99
2017-12-26T18:47:53.309Z,99.99
2017-12-26T18:48:21.315Z,99.99
2017-12-26T18:48:49.469Z,99.99
2017-12-26T18:49:17.447Z,99.99
2017-12-26T18:49:45.623Z,99.99
2017-12-26T18:50:13.830Z,99.99
2017-12-26T18:50:41.899Z,99.99
2017-12-26T18:51:09.903Z,99.99
2017-12-26T18:51:37.925Z,99.99
2017-12-26T18:52:05.878Z,99.99
2017-12-26T18:52:33.928Z,99.99
2017-12-26T18:53:01.998Z,99.99
2017-12-26T18:53:30.099Z,99.99
2017-12-26T18:53:58.041Z,99.99
2017-12-26T18:54:26.037Z,99.99
2017-12-26T18:54:53.823Z,99.99
2017-12-26T18:55:21.952Z,99.99
2017-12-26T18:55:50.022Z,99.99
2017-12-26T18:56:17.920Z,99.99
2017-12-26T18:56:45.975Z,99.99
2017-12-26T18:57:14.098Z,99.99
2017-12-26T18:57:42.013Z,99.99
2017-12-26T18:58:10.086Z,99.99
2017-12-26T18:58:38.151Z,99.99
2017-12-26T18:59:06.058Z,99.99
2017-12-26T18:59:34.202Z,99.99
2017-12-26T19:00:02.139Z,99.99
2017-12-26T19:00:30.192Z,99.99
2017-12-26T19:00:58.211Z,99.99
2017-12-26T19:01:26.244Z,99.99
2017-12-26T19:01:54.239Z,99.99
2017-12-26T19:02:22.392Z,99.99
2017-12-26T19:02:50.487Z,99.99
2017-12-26T19:03:18.390Z,99.99
2017-12-26T19:03:46.402Z,99.99
2017-12-26T19:04:14.450Z,99.99
2017-12-26T19:04:42.718Z,99.99
2017-12-26T19:05:10.823Z,99.99
2017-12-26T19:05:38.868Z,99.99
2017-12-26T19:06:06.959Z,99.99
2017-12-26T19:06:34.847Z,99.99
2017-12-26T19:07:02.892Z,99.99
2017-12-26T19:07:30.785Z,99.99
2017-12-26T19:07:58.823Z,99.99
2017-12-26T19:08:26.834Z,99.99
2017-12-26T19:08:54.630Z,99.99
2017-12-26T19:09:22.651Z,99.99
2017-12-26T19:09:50.657Z,99.99
2017-12-26T19:10:18.688Z,99.99
2017-12-26T19:10:46.658Z,99.99
2017-12-26T19:11:14.507Z,99.99
2017-12-26T19:11:42.523Z,99.99
2017-12-26T19:12:10.426Z,99.99
2017-12-26T19:12:38.534Z,99.99
2017-12-26T19:13:06.477Z,99.99
2017-12-26T19:13:34.641Z,99.99
2017-12-26T19:14:02.565Z,99.99
2017-12-26T19:14:30.584Z,99.99
2017-12-26T19:14:58.769Z,99.99
2017-12-26T19:15:26.885Z,99.99
2017-12-26T19:15:54.913Z,99.99
2017-12-26T19:16:23.069Z,99.99
2017-12-26T19:16:51.002Z,99.99
2017-12-26T19:17:18.903Z,99.99
2017-12-26T19:17:47.022Z,99.99
2017-12-26T19:18:14.953Z,99.99
2017-12-26T19:18:42.944Z,99.99
2017-12-26T19:19:11.708Z,99.99
2017-12-26T19:19:39.812Z,99.99
2017-12-26T19:20:07.765Z,99.99
2017-12-26T19:20:35.845Z,99.99
2017-12-26T19:21:03.750Z,99.99
2017-12-26T19:21:31.817Z,99.99
2017-12-26T19:21:59.977Z,99.99
2017-12-26T19:22:28.022Z,99.99
2017-12-26T19:22:56.157Z,99.99
2017-12-26T19:23:24.122Z,99.99
2017-12-26T19:23:52.131Z,99.99
2017-12-26T19:24:20.280Z,99.99
2017-12-26T19:24:48.489Z,99.99
2017-12-26T19:25:16.387Z,99.99
2017-12-26T19:25:44.509Z,99.99
2017-12-26T19:26:12.646Z,99.99
2017-12-26T19:26:40.811Z,99.99
2017-12-26T19:27:08.883Z,99.99
2017-12-26T19:27:36.907Z,99.99
2017-12-26T19:28:04.928Z,99.99
2017-12-26T19:28:32.844Z,99.99
2017-12-26T19:29:00.837Z,99.99
2017-12-26T19:29:28.542Z,99.99
2017-12-26T19:29:56.705Z,99.99
2017-12-26T19:30:24.842Z,99.99
2017-12-26T19:30:52.728Z,99.99
2017-12-26T19:31:20.625Z,99.99
2017-12-26T19:31:48.566Z,99.99
2017-12-26T19:32:16.731Z,99.99
2017-12-26T19:32:44.791Z,99.99
2017-12-26T19:33:12.882Z,99.99
2017-12-26T19:33:40.990Z,99.99
2017-12-26T19:34:09.066Z,99.99
2017-12-26T19:34:37.113Z,99.99
2017-12-26T19:35:05.271Z,99.99
2017-12-26T19:35:33.189Z,99.99
2017-12-26T19:36:01.223Z,99.99
2017-12-26T19:36:29.236Z,99.99
2017-12-26T19:36:57.265Z,99.99
2017-12-26T19:37:25.299Z,99.99
2017-12-26T19:37:53.222Z,99.99
2017-12-26T19:38:21.259Z,99.99
2017-12-26T19:38:49.391Z,99.99
2017-12-26T19:39:17.358Z,99.99
2017-12-26T19:39:45.490Z,99.99
2017-12-26T19:40:13.629Z,99.99
2017-12-26T19:40:41.676Z,99.99
2017-12-26T19:41:09.856Z,99.99
2017-12-26T19:41:37.791Z,99.99
2017-12-26T19:42:05.843Z,99.99
2017-12-26T19:42:33.786Z,99.99
2017-12-26T19:43:01.711Z,99.99
2017-12-26T19:43:29.782Z,99.99
2017-12-26T19:43:57.855Z,99.99
2017-12-26T19:44:25.862Z,99.99
2017-12-26T19:44:53.864Z,99.99
2017-12-26T19:45:22.048Z,99.99
2017-12-26T19:45:49.919Z,99.99
2017-12-26T19:46:18.042Z,99.99
2017-12-26T19:46:46.180Z,99.99
2017-12-26T19:47:14.288Z,99.99
2017-12-26T19:47:42.218Z,99.99
2017-12-26T19:48:10.101Z,99.99
2017-12-26T19:48:38.306Z,99.99
2017-12-26T19:49:06.380Z,99.99
2017-12-26T19:49:34.205Z,99.99
2017-12-26T19:50:02.326Z,99.99
2017-12-26T19:50:30.277Z,99.99
2017-12-26T19:50:58.453Z,99.99
2017-12-26T19:51:26.550Z,99.99
2017-12-26T19:51:54.373Z,99.99
2017-12-26T19:52:22.417Z,99.99
2017-12-26T19:52:50.581Z,99.99
2017-12-26T19:53:18.600Z,99.99
2017-12-26T19:53:46.469Z,99.99
2017-12-26T19:54:14.644Z,99.99
2017-12-26T19:54:42.450Z,99.99
2017-12-26T19:55:10.346Z,99.99
2017-12-26T19:55:38.499Z,99.99
2017-12-26T19:56:06.574Z,99.99
2017-12-26T19:56:34.524Z,99.99
2017-12-26T19:57:02.463Z,99.99
2017-12-26T19:57:30.552Z,99.99
2017-12-26T19:57:58.593Z,99.99
2017-12-26T19:58:26.593Z,99.99
2017-12-26T19:58:54.626Z,99.99
2017-12-26T19:59:22.586Z,99.99
2017-12-26T19:59:50.634Z,99.99
2017-12-26T20:00:18.770Z,99.99
2017-12-26T20:00:46.833Z,99.99
2017-12-26T20:01:14.784Z,99.99
2017-12-26T20:01:42.748Z,99.99
2017-12-26T20:02:10.769Z,99.99
2017-12-26T20:02:38.893Z,99.99
2017-12-26T20:03:06.940Z,99.99
2017-12-26T20:03:34.968Z,99.99
2017-12-26T20:04:03.023Z,99.99
2017-12-26T20:04:30.925Z,99.99